sensor_id;sensor_type;location;lat;lon;timestamp;P1;durP1;ratioP1;P2;durP2;ratioP2
14474;SDS011;7323;50.848;4.334;2023-12-07T00:01:08;42.93;;;23.90;;
14474;SDS011;7323;50.848;4.334;2023-12-07T00:03:33;47.17;;;26.47;;
14474;SDS011;7323;50.848;4.334;2023-12-07T00:05:59;42.83;;;22.83;;
14474;SDS011;7323;50.848;4.334;2023-12-07T00:08:25;38.27;;;21.50;;
14474;SDS011;7323;50.848;4.334;2023-12-07T00:10:51;35.03;;;21.83;;
14474;SDS011;7323;50.848;4.334;2023-12-07T00:13:16;37.07;;;21.57;;
14474;SDS011;7323;50.848;4.334;2023-12-07T00:15:42;34.23;;;21.70;;
14474;SDS011;7323;50.848;4.334;2023-12-07T00:18:08;41.57;;;23.33;;
14474;SDS011;7323;50.848;4.334;2023-12-07T00:20:34;44.67;;;24.73;;
14474;SDS011;7323;50.848;4.334;2023-12-07T00:22:59;37.97;;;23.90;;
14474;SDS011;7323;50.848;4.334;2023-12-07T00:25:25;40.47;;;23.17;;
14474;SDS011;7323;50.848;4.334;2023-12-07T00:27:51;38.00;;;22.50;;
14474;SDS011;7323;50.848;4.334;2023-12-07T00:30:17;37.47;;;23.63;;
14474;SDS011;7323;50.848;4.334;2023-12-07T00:32:43;37.63;;;22.83;;
14474;SDS011;7323;50.848;4.334;2023-12-07T00:35:11;40.17;;;23.33;;
14474;SDS011;7323;50.848;4.334;2023-12-07T00:37:38;36.63;;;20.83;;
14474;SDS011;7323;50.848;4.334;2023-12-07T00:40:03;37.77;;;22.67;;
14474;SDS011;7323;50.848;4.334;2023-12-07T00:42:30;32.97;;;19.80;;
14474;SDS011;7323;50.848;4.334;2023-12-07T00:44:55;34.93;;;20.30;;
14474;SDS011;7323;50.848;4.334;2023-12-07T00:47:22;35.83;;;23.17;;
14474;SDS011;7323;50.848;4.334;2023-12-07T00:49:48;34.00;;;20.03;;
14474;SDS011;7323;50.848;4.334;2023-12-07T00:52:14;32.07;;;19.83;;
14474;SDS011;7323;50.848;4.334;2023-12-07T00:54:39;34.40;;;21.33;;
14474;SDS011;7323;50.848;4.334;2023-12-07T00:57:05;31.57;;;19.80;;
14474;SDS011;7323;50.848;4.334;2023-12-07T00:59:32;34.37;;;20.83;;
14474;SDS011;7323;50.848;4.334;2023-12-07T01:02:00;32.67;;;19.10;;
14474;SDS011;7323;50.848;4.334;2023-12-07T01:04:27;34.17;;;20.30;;
14474;SDS011;7323;50.848;4.334;2023-12-07T01:06:53;32.30;;;21.67;;
14474;SDS011;7323;50.848;4.334;2023-12-07T01:09:19;34.10;;;21.37;;
14474;SDS011;7323;50.848;4.334;2023-12-07T01:11:45;34.80;;;20.20;;
14474;SDS011;7323;50.848;4.334;2023-12-07T01:14:10;31.83;;;19.73;;
14474;SDS011;7323;50.848;4.334;2023-12-07T01:16:36;33.03;;;20.80;;
14474;SDS011;7323;50.848;4.334;2023-12-07T01:19:02;29.57;;;19.17;;
14474;SDS011;7323;50.848;4.334;2023-12-07T01:21:28;31.73;;;20.87;;
14474;SDS011;7323;50.848;4.334;2023-12-07T01:23:53;35.53;;;19.27;;
14474;SDS011;7323;50.848;4.334;2023-12-07T01:26:19;32.10;;;21.83;;
14474;SDS011;7323;50.848;4.334;2023-12-07T01:28:46;33.90;;;21.40;;
14474;SDS011;7323;50.848;4.334;2023-12-07T01:31:11;30.53;;;19.67;;
14474;SDS011;7323;50.848;4.334;2023-12-07T01:33:37;37.33;;;23.03;;
14474;SDS011;7323;50.848;4.334;2023-12-07T01:36:03;34.13;;;21.97;;
14474;SDS011;7323;50.848;4.334;2023-12-07T01:38:29;29.97;;;20.63;;
14474;SDS011;7323;50.848;4.334;2023-12-07T01:40:54;31.50;;;20.13;;
14474;SDS011;7323;50.848;4.334;2023-12-07T01:43:21;33.67;;;22.53;;
14474;SDS011;7323;50.848;4.334;2023-12-07T01:45:48;37.03;;;21.80;;
14474;SDS011;7323;50.848;4.334;2023-12-07T01:48:15;36.57;;;21.67;;
14474;SDS011;7323;50.848;4.334;2023-12-07T01:50:41;37.83;;;23.17;;
14474;SDS011;7323;50.848;4.334;2023-12-07T01:53:07;35.13;;;20.87;;
14474;SDS011;7323;50.848;4.334;2023-12-07T01:55:33;32.97;;;21.33;;
14474;SDS011;7323;50.848;4.334;2023-12-07T01:57:59;28.20;;;18.53;;
14474;SDS011;7323;50.848;4.334;2023-12-07T02:00:26;30.80;;;19.90;;
14474;SDS011;7323;50.848;4.334;2023-12-07T02:02:52;29.60;;;19.30;;
14474;SDS011;7323;50.848;4.334;2023-12-07T02:05:19;27.47;;;18.70;;
14474;SDS011;7323;50.848;4.334;2023-12-07T02:07:44;26.97;;;17.77;;
14474;SDS011;7323;50.848;4.334;2023-12-07T02:10:11;29.50;;;21.27;;
14474;SDS011;7323;50.848;4.334;2023-12-07T02:12:38;29.00;;;19.53;;
14474;SDS011;7323;50.848;4.334;2023-12-07T02:15:05;27.83;;;17.97;;
14474;SDS011;7323;50.848;4.334;2023-12-07T02:17:38;27.27;;;18.33;;
14474;SDS011;7323;50.848;4.334;2023-12-07T02:23:03;24.70;;;17.23;;
14474;SDS011;7323;50.848;4.334;2023-12-07T02:28:25;24.47;;;16.97;;
14474;SDS011;7323;50.848;4.334;2023-12-07T02:30:51;27.10;;;17.23;;
14474;SDS011;7323;50.848;4.334;2023-12-07T02:33:17;23.67;;;15.47;;
14474;SDS011;7323;50.848;4.334;2023-12-07T02:35:42;24.50;;;16.27;;
14474;SDS011;7323;50.848;4.334;2023-12-07T02:38:08;27.00;;;18.37;;
14474;SDS011;7323;50.848;4.334;2023-12-07T02:40:34;31.23;;;19.37;;
14474;SDS011;7323;50.848;4.334;2023-12-07T02:43:00;31.40;;;18.17;;
14474;SDS011;7323;50.848;4.334;2023-12-07T02:45:28;29.07;;;20.37;;
14474;SDS011;7323;50.848;4.334;2023-12-07T02:47:54;28.57;;;18.93;;
14474;SDS011;7323;50.848;4.334;2023-12-07T02:50:20;23.80;;;15.57;;
14474;SDS011;7323;50.848;4.334;2023-12-07T02:52:46;28.93;;;19.00;;
14474;SDS011;7323;50.848;4.334;2023-12-07T02:55:11;29.73;;;19.20;;
14474;SDS011;7323;50.848;4.334;2023-12-07T02:57:37;24.90;;;18.73;;
14474;SDS011;7323;50.848;4.334;2023-12-07T03:00:03;23.33;;;14.53;;
14474;SDS011;7323;50.848;4.334;2023-12-07T03:02:36;21.80;;;15.87;;
14474;SDS011;7323;50.848;4.334;2023-12-07T03:05:03;21.80;;;16.27;;
14474;SDS011;7323;50.848;4.334;2023-12-07T03:07:30;22.83;;;17.00;;
14474;SDS011;7323;50.848;4.334;2023-12-07T03:09:55;25.53;;;18.07;;
14474;SDS011;7323;50.848;4.334;2023-12-07T03:12:21;25.67;;;19.07;;
14474;SDS011;7323;50.848;4.334;2023-12-07T03:14:48;27.57;;;19.20;;
14474;SDS011;7323;50.848;4.334;2023-12-07T03:17:14;32.50;;;19.10;;
14474;SDS011;7323;50.848;4.334;2023-12-07T03:19:40;26.83;;;17.20;;
14474;SDS011;7323;50.848;4.334;2023-12-07T03:22:07;26.63;;;18.80;;
14474;SDS011;7323;50.848;4.334;2023-12-07T03:24:36;25.03;;;16.67;;
14474;SDS011;7323;50.848;4.334;2023-12-07T03:27:03;20.47;;;14.60;;
14474;SDS011;7323;50.848;4.334;2023-12-07T03:29:29;24.47;;;15.73;;
14474;SDS011;7323;50.848;4.334;2023-12-07T03:31:55;22.37;;;15.73;;
14474;SDS011;7323;50.848;4.334;2023-12-07T03:34:21;23.77;;;18.13;;
14474;SDS011;7323;50.848;4.334;2023-12-07T03:36:47;21.63;;;15.80;;
14474;SDS011;7323;50.848;4.334;2023-12-07T03:39:13;21.03;;;15.37;;
14474;SDS011;7323;50.848;4.334;2023-12-07T03:41:40;19.83;;;14.37;;
14474;SDS011;7323;50.848;4.334;2023-12-07T03:44:06;24.60;;;15.43;;
14474;SDS011;7323;50.848;4.334;2023-12-07T03:46:32;20.53;;;14.83;;
14474;SDS011;7323;50.848;4.334;2023-12-07T03:48:58;19.20;;;13.47;;
14474;SDS011;7323;50.848;4.334;2023-12-07T03:51:25;20.40;;;14.37;;
14474;SDS011;7323;50.848;4.334;2023-12-07T03:53:52;22.10;;;16.93;;
14474;SDS011;7323;50.848;4.334;2023-12-07T03:56:24;19.83;;;13.97;;
14474;SDS011;7323;50.848;4.334;2023-12-07T03:58:50;19.50;;;13.33;;
14474;SDS011;7323;50.848;4.334;2023-12-07T04:01:16;18.90;;;14.33;;
14474;SDS011;7323;50.848;4.334;2023-12-07T04:03:42;20.37;;;15.07;;
14474;SDS011;7323;50.848;4.334;2023-12-07T04:06:08;20.60;;;14.17;;
14474;SDS011;7323;50.848;4.334;2023-12-07T04:08:34;19.23;;;13.10;;
14474;SDS011;7323;50.848;4.334;2023-12-07T04:11:00;18.67;;;13.47;;
14474;SDS011;7323;50.848;4.334;2023-12-07T04:13:25;20.57;;;14.83;;
14474;SDS011;7323;50.848;4.334;2023-12-07T04:15:51;18.23;;;14.93;;
14474;SDS011;7323;50.848;4.334;2023-12-07T04:18:17;19.30;;;13.80;;
14474;SDS011;7323;50.848;4.334;2023-12-07T04:20:43;20.53;;;15.13;;
14474;SDS011;7323;50.848;4.334;2023-12-07T04:23:09;19.83;;;14.47;;
14474;SDS011;7323;50.848;4.334;2023-12-07T04:25:34;20.87;;;15.87;;
14474;SDS011;7323;50.848;4.334;2023-12-07T04:28:00;21.83;;;16.40;;
14474;SDS011;7323;50.848;4.334;2023-12-07T04:30:25;21.13;;;15.37;;
14474;SDS011;7323;50.848;4.334;2023-12-07T04:32:51;24.63;;;15.97;;
14474;SDS011;7323;50.848;4.334;2023-12-07T04:35:17;20.57;;;14.17;;
14474;SDS011;7323;50.848;4.334;2023-12-07T04:37:43;19.67;;;15.07;;
14474;SDS011;7323;50.848;4.334;2023-12-07T04:40:09;20.27;;;15.27;;
14474;SDS011;7323;50.848;4.334;2023-12-07T04:42:35;16.90;;;13.33;;
14474;SDS011;7323;50.848;4.334;2023-12-07T04:45:01;16.73;;;13.97;;
14474;SDS011;7323;50.848;4.334;2023-12-07T04:47:27;17.07;;;12.73;;
14474;SDS011;7323;50.848;4.334;2023-12-07T04:49:53;15.43;;;12.60;;
14474;SDS011;7323;50.848;4.334;2023-12-07T04:52:19;19.43;;;13.40;;
14474;SDS011;7323;50.848;4.334;2023-12-07T04:54:44;18.43;;;14.70;;
14474;SDS011;7323;50.848;4.334;2023-12-07T04:57:10;17.40;;;12.40;;
14474;SDS011;7323;50.848;4.334;2023-12-07T04:59:35;17.50;;;12.40;;
14474;SDS011;7323;50.848;4.334;2023-12-07T05:02:01;21.37;;;14.67;;
14474;SDS011;7323;50.848;4.334;2023-12-07T05:04:27;19.20;;;15.03;;
14474;SDS011;7323;50.848;4.334;2023-12-07T05:06:53;23.00;;;13.63;;
14474;SDS011;7323;50.848;4.334;2023-12-07T05:09:18;17.63;;;13.03;;
14474;SDS011;7323;50.848;4.334;2023-12-07T05:11:44;18.37;;;13.37;;
14474;SDS011;7323;50.848;4.334;2023-12-07T05:14:10;19.93;;;15.10;;
14474;SDS011;7323;50.848;4.334;2023-12-07T05:16:36;18.27;;;13.27;;
14474;SDS011;7323;50.848;4.334;2023-12-07T05:19:02;19.17;;;14.00;;
14474;SDS011;7323;50.848;4.334;2023-12-07T05:21:28;18.40;;;14.40;;
14474;SDS011;7323;50.848;4.334;2023-12-07T05:23:53;20.57;;;14.83;;
14474;SDS011;7323;50.848;4.334;2023-12-07T05:26:19;21.33;;;14.97;;
14474;SDS011;7323;50.848;4.334;2023-12-07T05:28:46;18.63;;;14.77;;
14474;SDS011;7323;50.848;4.334;2023-12-07T05:31:18;18.93;;;15.10;;
14474;SDS011;7323;50.848;4.334;2023-12-07T05:33:44;25.53;;;14.57;;
14474;SDS011;7323;50.848;4.334;2023-12-07T05:36:10;19.77;;;15.20;;
14474;SDS011;7323;50.848;4.334;2023-12-07T05:38:37;19.70;;;13.63;;
14474;SDS011;7323;50.848;4.334;2023-12-07T05:41:02;17.47;;;14.07;;
14474;SDS011;7323;50.848;4.334;2023-12-07T05:43:28;16.90;;;12.20;;
14474;SDS011;7323;50.848;4.334;2023-12-07T05:45:54;18.13;;;13.40;;
14474;SDS011;7323;50.848;4.334;2023-12-07T05:48:20;19.43;;;13.70;;
14474;SDS011;7323;50.848;4.334;2023-12-07T05:50:45;19.40;;;14.13;;
14474;SDS011;7323;50.848;4.334;2023-12-07T05:53:11;18.60;;;14.10;;
14474;SDS011;7323;50.848;4.334;2023-12-07T05:55:37;17.63;;;13.70;;
14474;SDS011;7323;50.848;4.334;2023-12-07T05:58:03;17.50;;;12.03;;
14474;SDS011;7323;50.848;4.334;2023-12-07T06:00:29;21.10;;;15.03;;
14474;SDS011;7323;50.848;4.334;2023-12-07T06:02:55;17.80;;;13.33;;
14474;SDS011;7323;50.848;4.334;2023-12-07T06:05:20;19.80;;;12.80;;
14474;SDS011;7323;50.848;4.334;2023-12-07T06:07:46;17.93;;;12.27;;
14474;SDS011;7323;50.848;4.334;2023-12-07T06:10:12;20.13;;;12.43;;
14474;SDS011;7323;50.848;4.334;2023-12-07T06:12:38;17.00;;;12.87;;
14474;SDS011;7323;50.848;4.334;2023-12-07T06:15:04;16.00;;;11.77;;
14474;SDS011;7323;50.848;4.334;2023-12-07T06:17:35;20.17;;;13.07;;
14474;SDS011;7323;50.848;4.334;2023-12-07T06:20:01;17.87;;;12.80;;
14474;SDS011;7323;50.848;4.334;2023-12-07T06:22:28;20.40;;;12.63;;
14474;SDS011;7323;50.848;4.334;2023-12-07T06:24:54;19.77;;;13.20;;
14474;SDS011;7323;50.848;4.334;2023-12-07T06:27:20;17.00;;;12.73;;
14474;SDS011;7323;50.848;4.334;2023-12-07T06:29:46;19.13;;;13.27;;
14474;SDS011;7323;50.848;4.334;2023-12-07T06:32:11;18.50;;;12.80;;
14474;SDS011;7323;50.848;4.334;2023-12-07T06:34:40;19.00;;;13.00;;
14474;SDS011;7323;50.848;4.334;2023-12-07T06:37:06;15.90;;;11.60;;
14474;SDS011;7323;50.848;4.334;2023-12-07T06:39:32;18.00;;;12.13;;
14474;SDS011;7323;50.848;4.334;2023-12-07T06:41:57;14.90;;;11.80;;
14474;SDS011;7323;50.848;4.334;2023-12-07T06:44:24;19.00;;;11.17;;
14474;SDS011;7323;50.848;4.334;2023-12-07T06:46:50;16.77;;;12.10;;
14474;SDS011;7323;50.848;4.334;2023-12-07T06:49:16;16.60;;;11.27;;
14474;SDS011;7323;50.848;4.334;2023-12-07T06:51:42;16.80;;;11.50;;
14474;SDS011;7323;50.848;4.334;2023-12-07T06:54:07;16.77;;;10.50;;
14474;SDS011;7323;50.848;4.334;2023-12-07T06:56:33;16.77;;;10.67;;
14474;SDS011;7323;50.848;4.334;2023-12-07T06:58:58;19.53;;;11.13;;
14474;SDS011;7323;50.848;4.334;2023-12-07T07:01:24;17.03;;;11.83;;
14474;SDS011;7323;50.848;4.334;2023-12-07T07:03:50;16.37;;;10.97;;
14474;SDS011;7323;50.848;4.334;2023-12-07T07:06:16;15.57;;;11.40;;
14474;SDS011;7323;50.848;4.334;2023-12-07T07:08:42;16.33;;;11.90;;
14474;SDS011;7323;50.848;4.334;2023-12-07T07:11:13;15.27;;;11.20;;
14474;SDS011;7323;50.848;4.334;2023-12-07T07:13:40;15.63;;;11.07;;
14474;SDS011;7323;50.848;4.334;2023-12-07T07:16:07;17.00;;;11.63;;
14474;SDS011;7323;50.848;4.334;2023-12-07T07:18:33;17.50;;;11.40;;
14474;SDS011;7323;50.848;4.334;2023-12-07T07:20:59;15.77;;;10.93;;
14474;SDS011;7323;50.848;4.334;2023-12-07T07:23:25;19.60;;;11.73;;
14474;SDS011;7323;50.848;4.334;2023-12-07T07:25:51;13.83;;;10.63;;
14474;SDS011;7323;50.848;4.334;2023-12-07T07:28:16;16.57;;;10.17;;
14474;SDS011;7323;50.848;4.334;2023-12-07T07:30:42;19.57;;;11.70;;
14474;SDS011;7323;50.848;4.334;2023-12-07T07:33:08;15.93;;;10.90;;
14474;SDS011;7323;50.848;4.334;2023-12-07T07:35:34;14.40;;;11.13;;
14474;SDS011;7323;50.848;4.334;2023-12-07T07:37:59;13.70;;;10.90;;
14474;SDS011;7323;50.848;4.334;2023-12-07T07:40:25;18.03;;;11.43;;
14474;SDS011;7323;50.848;4.334;2023-12-07T07:42:51;20.63;;;13.27;;
14474;SDS011;7323;50.848;4.334;2023-12-07T07:45:17;16.70;;;11.10;;
14474;SDS011;7323;50.848;4.334;2023-12-07T07:47:42;16.43;;;10.80;;
14474;SDS011;7323;50.848;4.334;2023-12-07T07:50:08;15.63;;;11.20;;
14474;SDS011;7323;50.848;4.334;2023-12-07T07:52:35;16.47;;;10.77;;
14474;SDS011;7323;50.848;4.334;2023-12-07T07:55:02;18.07;;;12.50;;
14474;SDS011;7323;50.848;4.334;2023-12-07T07:57:28;17.80;;;11.43;;
14474;SDS011;7323;50.848;4.334;2023-12-07T07:59:55;15.43;;;11.27;;
14474;SDS011;7323;50.848;4.334;2023-12-07T08:02:22;17.97;;;11.53;;
14474;SDS011;7323;50.848;4.334;2023-12-07T08:04:48;18.00;;;11.83;;
14474;SDS011;7323;50.848;4.334;2023-12-07T08:07:13;17.03;;;11.20;;
14474;SDS011;7323;50.848;4.334;2023-12-07T08:09:39;16.37;;;11.23;;
14474;SDS011;7323;50.848;4.334;2023-12-07T08:12:05;15.47;;;10.80;;
14474;SDS011;7323;50.848;4.334;2023-12-07T08:14:32;19.07;;;10.73;;
14474;SDS011;7323;50.848;4.334;2023-12-07T08:16:57;16.03;;;11.67;;
14474;SDS011;7323;50.848;4.334;2023-12-07T08:19:23;20.97;;;11.20;;
14474;SDS011;7323;50.848;4.334;2023-12-07T08:21:50;16.33;;;10.53;;
14474;SDS011;7323;50.848;4.334;2023-12-07T08:24:19;16.50;;;10.77;;
14474;SDS011;7323;50.848;4.334;2023-12-07T08:26:44;14.47;;;10.60;;
14474;SDS011;7323;50.848;4.334;2023-12-07T08:29:10;16.57;;;10.77;;
14474;SDS011;7323;50.848;4.334;2023-12-07T08:31:36;15.77;;;11.13;;
14474;SDS011;7323;50.848;4.334;2023-12-07T08:34:01;14.10;;;9.90;;
14474;SDS011;7323;50.848;4.334;2023-12-07T08:36:27;19.57;;;10.60;;
14474;SDS011;7323;50.848;4.334;2023-12-07T08:38:53;15.77;;;11.53;;
14474;SDS011;7323;50.848;4.334;2023-12-07T08:41:19;14.47;;;9.83;;
14474;SDS011;7323;50.848;4.334;2023-12-07T08:43:45;14.10;;;10.60;;
14474;SDS011;7323;50.848;4.334;2023-12-07T08:46:10;16.23;;;10.87;;
14474;SDS011;7323;50.848;4.334;2023-12-07T08:48:36;23.90;;;11.17;;
14474;SDS011;7323;50.848;4.334;2023-12-07T08:51:05;16.60;;;11.47;;
14474;SDS011;7323;50.848;4.334;2023-12-07T08:53:33;17.90;;;10.73;;
14474;SDS011;7323;50.848;4.334;2023-12-07T08:56:02;17.50;;;10.73;;
14474;SDS011;7323;50.848;4.334;2023-12-07T08:58:28;11.53;;;10.20;;
14474;SDS011;7323;50.848;4.334;2023-12-07T09:00:54;12.47;;;9.87;;
14474;SDS011;7323;50.848;4.334;2023-12-07T09:03:20;13.83;;;9.70;;
14474;SDS011;7323;50.848;4.334;2023-12-07T09:05:50;13.90;;;10.37;;
14474;SDS011;7323;50.848;4.334;2023-12-07T09:08:16;15.13;;;10.47;;
14474;SDS011;7323;50.848;4.334;2023-12-07T09:10:42;13.13;;;9.90;;
14474;SDS011;7323;50.848;4.334;2023-12-07T09:13:07;11.87;;;9.33;;
14474;SDS011;7323;50.848;4.334;2023-12-07T09:15:33;14.93;;;9.93;;
14474;SDS011;7323;50.848;4.334;2023-12-07T09:18:02;12.63;;;10.00;;
14474;SDS011;7323;50.848;4.334;2023-12-07T09:20:28;14.17;;;9.37;;
14474;SDS011;7323;50.848;4.334;2023-12-07T09:22:54;12.50;;;9.93;;
14474;SDS011;7323;50.848;4.334;2023-12-07T09:25:22;15.67;;;9.73;;
14474;SDS011;7323;50.848;4.334;2023-12-07T09:27:48;14.90;;;10.33;;
14474;SDS011;7323;50.848;4.334;2023-12-07T09:30:14;13.80;;;10.40;;
14474;SDS011;7323;50.848;4.334;2023-12-07T09:32:40;16.90;;;9.63;;
14474;SDS011;7323;50.848;4.334;2023-12-07T09:35:07;12.20;;;8.60;;
14474;SDS011;7323;50.848;4.334;2023-12-07T09:37:40;13.97;;;9.80;;
14474;SDS011;7323;50.848;4.334;2023-12-07T09:40:06;15.00;;;9.37;;
14474;SDS011;7323;50.848;4.334;2023-12-07T09:42:32;14.97;;;10.17;;
14474;SDS011;7323;50.848;4.334;2023-12-07T09:44:58;14.13;;;9.00;;
14474;SDS011;7323;50.848;4.334;2023-12-07T09:47:27;15.77;;;10.00;;
14474;SDS011;7323;50.848;4.334;2023-12-07T09:49:55;14.37;;;9.43;;
14474;SDS011;7323;50.848;4.334;2023-12-07T09:52:22;16.10;;;9.53;;
14474;SDS011;7323;50.848;4.334;2023-12-07T09:54:48;12.33;;;8.50;;
14474;SDS011;7323;50.848;4.334;2023-12-07T09:57:15;15.83;;;8.70;;
14474;SDS011;7323;50.848;4.334;2023-12-07T09:59:41;13.63;;;8.43;;
14474;SDS011;7323;50.848;4.334;2023-12-07T10:02:07;13.53;;;8.57;;
14474;SDS011;7323;50.848;4.334;2023-12-07T10:04:33;14.33;;;8.07;;
14474;SDS011;7323;50.848;4.334;2023-12-07T10:06:58;13.00;;;8.43;;
14474;SDS011;7323;50.848;4.334;2023-12-07T10:09:24;12.33;;;8.80;;
14474;SDS011;7323;50.848;4.334;2023-12-07T10:12:01;11.50;;;7.47;;
14474;SDS011;7323;50.848;4.334;2023-12-07T10:14:28;13.40;;;8.00;;
14474;SDS011;7323;50.848;4.334;2023-12-07T10:16:55;10.53;;;7.50;;
14474;SDS011;7323;50.848;4.334;2023-12-07T10:19:21;13.80;;;7.70;;
14474;SDS011;7323;50.848;4.334;2023-12-07T10:21:51;11.83;;;7.90;;
14474;SDS011;7323;50.848;4.334;2023-12-07T10:24:17;10.80;;;7.27;;
14474;SDS011;7323;50.848;4.334;2023-12-07T10:26:44;12.60;;;8.23;;
14474;SDS011;7323;50.848;4.334;2023-12-07T10:29:11;9.67;;;7.43;;
14474;SDS011;7323;50.848;4.334;2023-12-07T10:31:37;11.03;;;7.77;;
14474;SDS011;7323;50.848;4.334;2023-12-07T10:34:07;12.17;;;7.80;;
14474;SDS011;7323;50.848;4.334;2023-12-07T10:36:33;10.67;;;7.50;;
14474;SDS011;7323;50.848;4.334;2023-12-07T10:38:59;11.50;;;7.47;;
14474;SDS011;7323;50.848;4.334;2023-12-07T10:41:26;11.73;;;7.50;;
14474;SDS011;7323;50.848;4.334;2023-12-07T10:44:01;12.27;;;7.30;;
14474;SDS011;7323;50.848;4.334;2023-12-07T10:46:32;10.00;;;7.20;;
14474;SDS011;7323;50.848;4.334;2023-12-07T10:49:06;11.83;;;7.47;;
14474;SDS011;7323;50.848;4.334;2023-12-07T10:51:45;13.70;;;7.43;;
14474;SDS011;7323;50.848;4.334;2023-12-07T10:54:15;10.83;;;6.83;;
14474;SDS011;7323;50.848;4.334;2023-12-07T10:56:44;11.13;;;7.20;;
14474;SDS011;7323;50.848;4.334;2023-12-07T10:59:11;10.50;;;6.60;;
14474;SDS011;7323;50.848;4.334;2023-12-07T11:01:40;9.13;;;6.53;;
14474;SDS011;7323;50.848;4.334;2023-12-07T11:04:08;12.83;;;7.43;;
14474;SDS011;7323;50.848;4.334;2023-12-07T11:06:40;12.43;;;7.07;;
14474;SDS011;7323;50.848;4.334;2023-12-07T11:09:08;13.13;;;7.60;;
14474;SDS011;7323;50.848;4.334;2023-12-07T11:14:11;10.10;;;6.90;;
14474;SDS011;7323;50.848;4.334;2023-12-07T11:16:41;13.17;;;7.20;;
14474;SDS011;7323;50.848;4.334;2023-12-07T11:22:01;10.90;;;7.57;;
14474;SDS011;7323;50.848;4.334;2023-12-07T11:24:29;9.30;;;6.60;;
14474;SDS011;7323;50.848;4.334;2023-12-07T11:26:55;15.70;;;8.70;;
14474;SDS011;7323;50.848;4.334;2023-12-07T11:29:24;13.73;;;7.60;;
14474;SDS011;7323;50.848;4.334;2023-12-07T11:31:55;11.90;;;6.83;;
14474;SDS011;7323;50.848;4.334;2023-12-07T11:34:41;12.83;;;7.83;;
14474;SDS011;7323;50.848;4.334;2023-12-07T11:37:08;10.30;;;6.60;;
14474;SDS011;7323;50.848;4.334;2023-12-07T11:39:36;11.40;;;6.87;;
14474;SDS011;7323;50.848;4.334;2023-12-07T11:42:21;11.27;;;6.90;;
14474;SDS011;7323;50.848;4.334;2023-12-07T11:44:48;11.47;;;6.67;;
14474;SDS011;7323;50.848;4.334;2023-12-07T11:47:15;10.70;;;6.57;;
14474;SDS011;7323;50.848;4.334;2023-12-07T11:49:42;11.00;;;6.60;;
14474;SDS011;7323;50.848;4.334;2023-12-07T11:52:18;10.90;;;6.17;;
14474;SDS011;7323;50.848;4.334;2023-12-07T11:54:48;13.13;;;6.77;;
14474;SDS011;7323;50.848;4.334;2023-12-07T11:57:15;10.83;;;6.07;;
14474;SDS011;7323;50.848;4.334;2023-12-07T11:59:42;10.47;;;6.27;;
14474;SDS011;7323;50.848;4.334;2023-12-07T12:02:12;8.13;;;5.93;;
14474;SDS011;7323;50.848;4.334;2023-12-07T12:04:41;9.50;;;6.23;;
14474;SDS011;7323;50.848;4.334;2023-12-07T12:07:08;8.20;;;5.80;;
14474;SDS011;7323;50.848;4.334;2023-12-07T12:09:33;10.90;;;6.50;;
14474;SDS011;7323;50.848;4.334;2023-12-07T12:11:59;10.73;;;6.30;;
14474;SDS011;7323;50.848;4.334;2023-12-07T12:14:25;9.60;;;5.83;;
14474;SDS011;7323;50.848;4.334;2023-12-07T12:16:52;7.97;;;5.87;;
14474;SDS011;7323;50.848;4.334;2023-12-07T12:19:18;8.03;;;5.80;;
14474;SDS011;7323;50.848;4.334;2023-12-07T12:21:45;9.97;;;5.57;;
14474;SDS011;7323;50.848;4.334;2023-12-07T12:24:12;7.93;;;5.00;;
14474;SDS011;7323;50.848;4.334;2023-12-07T12:26:41;9.20;;;5.90;;
14474;SDS011;7323;50.848;4.334;2023-12-07T12:29:08;8.23;;;5.97;;
14474;SDS011;7323;50.848;4.334;2023-12-07T12:31:34;10.77;;;5.97;;
14474;SDS011;7323;50.848;4.334;2023-12-07T12:34:10;8.63;;;5.67;;
14474;SDS011;7323;50.848;4.334;2023-12-07T12:36:39;10.93;;;5.93;;
14474;SDS011;7323;50.848;4.334;2023-12-07T12:39:05;10.30;;;5.80;;
14474;SDS011;7323;50.848;4.334;2023-12-07T12:41:33;11.97;;;5.60;;
14474;SDS011;7323;50.848;4.334;2023-12-07T12:44:02;12.00;;;5.90;;
14474;SDS011;7323;50.848;4.334;2023-12-07T12:46:28;10.47;;;6.40;;
14474;SDS011;7323;50.848;4.334;2023-12-07T12:51:27;10.67;;;6.07;;
14474;SDS011;7323;50.848;4.334;2023-12-07T12:53:58;9.70;;;5.93;;
14474;SDS011;7323;50.848;4.334;2023-12-07T12:56:24;11.53;;;6.33;;
14474;SDS011;7323;50.848;4.334;2023-12-07T12:58:52;11.93;;;6.67;;
14474;SDS011;7323;50.848;4.334;2023-12-07T13:01:21;11.83;;;6.53;;
14474;SDS011;7323;50.848;4.334;2023-12-07T13:03:47;8.60;;;6.77;;
14474;SDS011;7323;50.848;4.334;2023-12-07T13:06:14;12.10;;;6.97;;
14474;SDS011;7323;50.848;4.334;2023-12-07T13:08:43;8.93;;;5.67;;
14474;SDS011;7323;50.848;4.334;2023-12-07T13:11:09;11.00;;;6.13;;
14474;SDS011;7323;50.848;4.334;2023-12-07T13:13:40;10.83;;;5.73;;
14474;SDS011;7323;50.848;4.334;2023-12-07T13:16:09;8.63;;;5.67;;
14474;SDS011;7323;50.848;4.334;2023-12-07T13:18:37;6.77;;;4.63;;
14474;SDS011;7323;50.848;4.334;2023-12-07T13:21:02;7.33;;;4.83;;
14474;SDS011;7323;50.848;4.334;2023-12-07T13:23:28;9.40;;;5.40;;
14474;SDS011;7323;50.848;4.334;2023-12-07T13:25:54;9.43;;;5.47;;
14474;SDS011;7323;50.848;4.334;2023-12-07T13:28:20;8.13;;;4.67;;
14474;SDS011;7323;50.848;4.334;2023-12-07T13:30:45;5.73;;;4.53;;
14474;SDS011;7323;50.848;4.334;2023-12-07T13:33:11;8.00;;;4.67;;
14474;SDS011;7323;50.848;4.334;2023-12-07T13:35:36;6.60;;;4.53;;
14474;SDS011;7323;50.848;4.334;2023-12-07T13:38:02;8.73;;;5.53;;
14474;SDS011;7323;50.848;4.334;2023-12-07T13:40:29;11.23;;;5.93;;
14474;SDS011;7323;50.848;4.334;2023-12-07T13:42:55;7.77;;;5.90;;
14474;SDS011;7323;50.848;4.334;2023-12-07T13:45:21;8.90;;;5.30;;
14474;SDS011;7323;50.848;4.334;2023-12-07T13:47:46;12.23;;;6.60;;
14474;SDS011;7323;50.848;4.334;2023-12-07T13:50:13;11.03;;;6.40;;
14474;SDS011;7323;50.848;4.334;2023-12-07T13:52:38;7.47;;;5.23;;
14474;SDS011;7323;50.848;4.334;2023-12-07T13:55:04;7.60;;;4.73;;
14474;SDS011;7323;50.848;4.334;2023-12-07T13:57:30;7.63;;;5.67;;
14474;SDS011;7323;50.848;4.334;2023-12-07T13:59:56;8.90;;;6.33;;
14474;SDS011;7323;50.848;4.334;2023-12-07T14:02:22;11.73;;;6.43;;
14474;SDS011;7323;50.848;4.334;2023-12-07T14:04:49;10.30;;;6.00;;
14474;SDS011;7323;50.848;4.334;2023-12-07T14:07:16;11.03;;;6.23;;
14474;SDS011;7323;50.848;4.334;2023-12-07T14:09:44;15.30;;;7.83;;
14474;SDS011;7323;50.848;4.334;2023-12-07T14:12:11;12.03;;;6.03;;
14474;SDS011;7323;50.848;4.334;2023-12-07T14:14:47;7.70;;;5.27;;
14474;SDS011;7323;50.848;4.334;2023-12-07T14:17:14;9.20;;;6.17;;
14474;SDS011;7323;50.848;4.334;2023-12-07T14:19:40;8.40;;;5.97;;
14474;SDS011;7323;50.848;4.334;2023-12-07T14:22:06;7.67;;;6.00;;
14474;SDS011;7323;50.848;4.334;2023-12-07T14:24:40;7.93;;;5.60;;
14474;SDS011;7323;50.848;4.334;2023-12-07T14:27:08;8.33;;;5.30;;
14474;SDS011;7323;50.848;4.334;2023-12-07T14:29:34;6.83;;;5.27;;
14474;SDS011;7323;50.848;4.334;2023-12-07T14:32:00;10.43;;;5.80;;
14474;SDS011;7323;50.848;4.334;2023-12-07T14:34:26;7.93;;;5.27;;
14474;SDS011;7323;50.848;4.334;2023-12-07T14:36:52;6.70;;;5.43;;
14474;SDS011;7323;50.848;4.334;2023-12-07T14:39:18;12.83;;;6.90;;
14474;SDS011;7323;50.848;4.334;2023-12-07T14:41:47;15.00;;;6.27;;
14474;SDS011;7323;50.848;4.334;2023-12-07T14:44:20;7.00;;;5.13;;
14474;SDS011;7323;50.848;4.334;2023-12-07T14:46:46;8.87;;;5.10;;
14474;SDS011;7323;50.848;4.334;2023-12-07T14:49:13;9.13;;;5.10;;
14474;SDS011;7323;50.848;4.334;2023-12-07T14:51:43;8.77;;;5.60;;